McCleary, Washington
Current Conditions -  °F | °C
As of 1:53 PM on Monday 22 Dec 2014 (Local Time) from KSHN Reporting Station
Overcast Overcast  
Wind Chill: 43°   Ceiling: 600
Heat Index: 45°   Visibility: 10mi
Dew Point: 42°   Wind: 5mph
Humidity: 90%   Direction: 300°WNW
Pressure: 30.35"   Gusts: NA
Location:  47.05°N, 123.27°W
Report Text: KSHN 222153Z AUTO 30004KT 10SM OVC006 07/06 A3035 RMK AO2 SLP279 T00720056
Loading
Personal Weather Stations






























Interactive Weather Map New forecast layout! Learn more

10-Day Weather Forecast

Advertisements
Track Severe Weather on mobile